sensor_id;sensor_type;location;lat;lon;timestamp;P1;durP1;ratioP1;P2;durP2;ratioP2
72864;SDS011;61000;48.120;11.548;2022-10-16T00:00:37;5.22;;;3.83;;
72864;SDS011;61000;48.120;11.548;2022-10-16T00:03:06;7.30;;;3.03;;
72864;SDS011;61000;48.120;11.548;2022-10-16T00:05:37;4.65;;;3.22;;
72864;SDS011;61000;48.120;11.548;2022-10-16T00:08:05;3.08;;;2.78;;
72864;SDS011;61000;48.120;11.548;2022-10-16T00:10:33;3.38;;;3.08;;
72864;SDS011;61000;48.120;11.548;2022-10-16T00:13:00;5.85;;;3.00;;
72864;SDS011;61000;48.120;11.548;2022-10-16T00:15:27;4.47;;;2.95;;
72864;SDS011;61000;48.120;11.548;2022-10-16T00:17:54;3.17;;;2.72;;
72864;SDS011;61000;48.120;11.548;2022-10-16T00:20:22;6.30;;;4.25;;
72864;SDS011;61000;48.120;11.548;2022-10-16T00:22:49;4.93;;;2.95;;
72864;SDS011;61000;48.120;11.548;2022-10-16T00:25:16;4.82;;;3.25;;
72864;SDS011;61000;48.120;11.548;2022-10-16T00:27:43;4.13;;;2.78;;
72864;SDS011;61000;48.120;11.548;2022-10-16T00:30:10;5.53;;;2.95;;
72864;SDS011;61000;48.120;11.548;2022-10-16T00:32:37;4.70;;;3.03;;
72864;SDS011;61000;48.120;11.548;2022-10-16T00:35:04;3.65;;;2.95;;
72864;SDS011;61000;48.120;11.548;2022-10-16T00:37:33;6.97;;;3.10;;
72864;SDS011;61000;48.120;11.548;2022-10-16T00:40:00;4.22;;;2.80;;
72864;SDS011;61000;48.120;11.548;2022-10-16T00:42:26;3.90;;;2.95;;
72864;SDS011;61000;48.120;11.548;2022-10-16T00:44:54;5.88;;;3.03;;
72864;SDS011;61000;48.120;11.548;2022-10-16T00:47:23;6.28;;;2.80;;
72864;SDS011;61000;48.120;11.548;2022-10-16T00:49:53;4.45;;;2.83;;
72864;SDS011;61000;48.120;11.548;2022-10-16T00:52:24;7.72;;;2.70;;
72864;SDS011;61000;48.120;11.548;2022-10-16T00:54:53;10.20;;;2.75;;
72864;SDS011;61000;48.120;11.548;2022-10-16T00:57:21;5.38;;;2.88;;
72864;SDS011;61000;48.120;11.548;2022-10-16T00:59:48;4.13;;;3.10;;
72864;SDS011;61000;48.120;11.548;2022-10-16T01:02:15;3.28;;;3.00;;
72864;SDS011;61000;48.120;11.548;2022-10-16T01:04:44;7.10;;;2.80;;
72864;SDS011;61000;48.120;11.548;2022-10-16T01:07:14;3.47;;;2.88;;
72864;SDS011;61000;48.120;11.548;2022-10-16T01:09:54;3.95;;;2.65;;
72864;SDS011;61000;48.120;11.548;2022-10-16T01:12:31;5.68;;;3.22;;
72864;SDS011;61000;48.120;11.548;2022-10-16T01:15:06;3.95;;;2.85;;
72864;SDS011;61000;48.120;11.548;2022-10-16T01:17:39;3.28;;;2.90;;
72864;SDS011;61000;48.120;11.548;2022-10-16T01:20:12;4.43;;;3.30;;
72864;SDS011;61000;48.120;11.548;2022-10-16T01:22:48;3.95;;;3.10;;
72864;SDS011;61000;48.120;11.548;2022-10-16T01:25:35;3.60;;;2.55;;
72864;SDS011;61000;48.120;11.548;2022-10-16T01:28:12;3.67;;;2.70;;
72864;SDS011;61000;48.120;11.548;2022-10-16T01:30:42;4.63;;;2.80;;
72864;SDS011;61000;48.120;11.548;2022-10-16T01:33:13;4.95;;;2.80;;
72864;SDS011;61000;48.120;11.548;2022-10-16T01:35:45;3.78;;;2.70;;
72864;SDS011;61000;48.120;11.548;2022-10-16T01:38:17;5.07;;;3.10;;
72864;SDS011;61000;48.120;11.548;2022-10-16T01:40:50;4.10;;;3.53;;
72864;SDS011;61000;48.120;11.548;2022-10-16T01:43:24;3.35;;;2.60;;
72864;SDS011;61000;48.120;11.548;2022-10-16T01:45:55;5.35;;;2.78;;
72864;SDS011;61000;48.120;11.548;2022-10-16T01:48:22;6.18;;;2.70;;
72864;SDS011;61000;48.120;11.548;2022-10-16T01:50:54;4.97;;;2.50;;
72864;SDS011;61000;48.120;11.548;2022-10-16T01:53:24;3.45;;;2.60;;
72864;SDS011;61000;48.120;11.548;2022-10-16T01:55:52;3.58;;;2.60;;
72864;SDS011;61000;48.120;11.548;2022-10-16T01:58:23;3.67;;;2.55;;
72864;SDS011;61000;48.120;11.548;2022-10-16T02:00:51;2.75;;;2.47;;
72864;SDS011;61000;48.120;11.548;2022-10-16T02:03:22;3.40;;;2.47;;
72864;SDS011;61000;48.120;11.548;2022-10-16T02:05:50;5.35;;;2.08;;
72864;SDS011;61000;48.120;11.548;2022-10-16T02:08:19;5.22;;;2.10;;
72864;SDS011;61000;48.120;11.548;2022-10-16T02:10:47;2.38;;;2.10;;
72864;SDS011;61000;48.120;11.548;2022-10-16T02:13:15;4.03;;;2.35;;
72864;SDS011;61000;48.120;11.548;2022-10-16T02:15:47;2.22;;;2.03;;
72864;SDS011;61000;48.120;11.548;2022-10-16T02:18:14;3.75;;;2.10;;
72864;SDS011;61000;48.120;11.548;2022-10-16T02:20:43;2.58;;;2.13;;
72864;SDS011;61000;48.120;11.548;2022-10-16T02:23:17;5.07;;;1.90;;
72864;SDS011;61000;48.120;11.548;2022-10-16T02:25:48;4.95;;;2.13;;
72864;SDS011;61000;48.120;11.548;2022-10-16T02:28:18;2.35;;;2.10;;
72864;SDS011;61000;48.120;11.548;2022-10-16T02:30:52;2.35;;;2.15;;
72864;SDS011;61000;48.120;11.548;2022-10-16T02:33:23;3.28;;;1.80;;
72864;SDS011;61000;48.120;11.548;2022-10-16T02:35:53;4.30;;;2.00;;
72864;SDS011;61000;48.120;11.548;2022-10-16T02:38:20;4.35;;;2.00;;
72864;SDS011;61000;48.120;11.548;2022-10-16T02:40:48;2.92;;;1.90;;
72864;SDS011;61000;48.120;11.548;2022-10-16T02:43:15;2.00;;;1.80;;
72864;SDS011;61000;48.120;11.548;2022-10-16T02:45:43;2.85;;;1.60;;
72864;SDS011;61000;48.120;11.548;2022-10-16T02:48:11;2.22;;;1.75;;
72864;SDS011;61000;48.120;11.548;2022-10-16T02:50:38;2.55;;;1.70;;
72864;SDS011;61000;48.120;11.548;2022-10-16T02:53:05;4.40;;;2.28;;
72864;SDS011;61000;48.120;11.548;2022-10-16T02:55:31;2.50;;;1.83;;
72864;SDS011;61000;48.120;11.548;2022-10-16T02:57:58;3.22;;;1.88;;
72864;SDS011;61000;48.120;11.548;2022-10-16T03:00:25;2.30;;;2.10;;
72864;SDS011;61000;48.120;11.548;2022-10-16T03:02:53;2.05;;;1.95;;
72864;SDS011;61000;48.120;11.548;2022-10-16T03:05:21;2.92;;;1.73;;
72864;SDS011;61000;48.120;11.548;2022-10-16T03:07:48;1.83;;;1.73;;
72864;SDS011;61000;48.120;11.548;2022-10-16T03:10:15;1.77;;;1.67;;
72864;SDS011;61000;48.120;11.548;2022-10-16T03:12:42;4.07;;;2.17;;
72864;SDS011;61000;48.120;11.548;2022-10-16T03:15:09;3.13;;;1.92;;
72864;SDS011;61000;48.120;11.548;2022-10-16T03:17:36;2.05;;;1.95;;
72864;SDS011;61000;48.120;11.548;2022-10-16T03:20:03;2.90;;;2.05;;
72864;SDS011;61000;48.120;11.548;2022-10-16T03:22:32;2.65;;;1.48;;
72864;SDS011;61000;48.120;11.548;2022-10-16T03:24:58;1.95;;;1.83;;
72864;SDS011;61000;48.120;11.548;2022-10-16T03:27:25;2.65;;;2.00;;
72864;SDS011;61000;48.120;11.548;2022-10-16T03:29:52;1.75;;;1.65;;
72864;SDS011;61000;48.120;11.548;2022-10-16T03:32:19;1.73;;;1.63;;
72864;SDS011;61000;48.120;11.548;2022-10-16T03:34:46;2.35;;;1.90;;
72864;SDS011;61000;48.120;11.548;2022-10-16T03:37:13;4.05;;;2.17;;
72864;SDS011;61000;48.120;11.548;2022-10-16T03:39:41;3.45;;;1.80;;
72864;SDS011;61000;48.120;11.548;2022-10-16T03:42:08;2.40;;;1.75;;
72864;SDS011;61000;48.120;11.548;2022-10-16T03:44:35;4.93;;;2.00;;
72864;SDS011;61000;48.120;11.548;2022-10-16T03:47:02;2.53;;;1.95;;
72864;SDS011;61000;48.120;11.548;2022-10-16T03:49:29;4.47;;;1.80;;
72864;SDS011;61000;48.120;11.548;2022-10-16T03:51:55;5.85;;;1.80;;
72864;SDS011;61000;48.120;11.548;2022-10-16T03:54:22;2.13;;;1.88;;
72864;SDS011;61000;48.120;11.548;2022-10-16T03:56:50;4.15;;;1.65;;
72864;SDS011;61000;48.120;11.548;2022-10-16T03:59:17;1.98;;;1.50;;
72864;SDS011;61000;48.120;11.548;2022-10-16T04:01:44;2.15;;;1.80;;
72864;SDS011;61000;48.120;11.548;2022-10-16T04:04:11;2.10;;;1.90;;
72864;SDS011;61000;48.120;11.548;2022-10-16T04:06:38;1.73;;;1.63;;
72864;SDS011;61000;48.120;11.548;2022-10-16T04:09:04;2.45;;;1.83;;
72864;SDS011;61000;48.120;11.548;2022-10-16T04:11:31;2.05;;;1.88;;
72864;SDS011;61000;48.120;11.548;2022-10-16T04:14:00;2.75;;;1.60;;
72864;SDS011;61000;48.120;11.548;2022-10-16T04:16:27;1.98;;;1.80;;
72864;SDS011;61000;48.120;11.548;2022-10-16T04:18:53;2.78;;;2.17;;
72864;SDS011;61000;48.120;11.548;2022-10-16T04:21:20;2.00;;;1.90;;
72864;SDS011;61000;48.120;11.548;2022-10-16T04:23:47;1.52;;;1.38;;
72864;SDS011;61000;48.120;11.548;2022-10-16T04:26:14;1.70;;;1.60;;
72864;SDS011;61000;48.120;11.548;2022-10-16T04:28:41;2.20;;;1.63;;
72864;SDS011;61000;48.120;11.548;2022-10-16T04:31:10;2.00;;;1.90;;
72864;SDS011;61000;48.120;11.548;2022-10-16T04:33:37;4.18;;;1.60;;
72864;SDS011;61000;48.120;11.548;2022-10-16T04:36:04;1.85;;;1.52;;
72864;SDS011;61000;48.120;11.548;2022-10-16T04:38:31;6.75;;;2.15;;
72864;SDS011;61000;48.120;11.548;2022-10-16T04:40:57;2.88;;;1.70;;
72864;SDS011;61000;48.120;11.548;2022-10-16T04:43:24;1.70;;;1.60;;
72864;SDS011;61000;48.120;11.548;2022-10-16T04:45:52;2.83;;;2.40;;
72864;SDS011;61000;48.120;11.548;2022-10-16T04:48:21;3.17;;;1.63;;
72864;SDS011;61000;48.120;11.548;2022-10-16T04:50:48;3.53;;;1.70;;
72864;SDS011;61000;48.120;11.548;2022-10-16T04:53:14;1.85;;;1.75;;
72864;SDS011;61000;48.120;11.548;2022-10-16T04:55:41;2.58;;;1.90;;
72864;SDS011;61000;48.120;11.548;2022-10-16T04:58:09;2.03;;;1.83;;
72864;SDS011;61000;48.120;11.548;2022-10-16T05:00:36;3.97;;;1.77;;
72864;SDS011;61000;48.120;11.548;2022-10-16T05:03:03;3.15;;;1.60;;
72864;SDS011;61000;48.120;11.548;2022-10-16T05:05:33;1.63;;;1.52;;
72864;SDS011;61000;48.120;11.548;2022-10-16T05:08:01;3.80;;;2.95;;
72864;SDS011;61000;48.120;11.548;2022-10-16T05:10:28;2.05;;;1.67;;
72864;SDS011;61000;48.120;11.548;2022-10-16T05:12:55;2.75;;;1.88;;
72864;SDS011;61000;48.120;11.548;2022-10-16T05:15:21;1.75;;;1.65;;
72864;SDS011;61000;48.120;11.548;2022-10-16T05:17:51;2.38;;;2.17;;
72864;SDS011;61000;48.120;11.548;2022-10-16T05:20:19;1.95;;;1.85;;
72864;SDS011;61000;48.120;11.548;2022-10-16T05:22:47;3.15;;;1.88;;
72864;SDS011;61000;48.120;11.548;2022-10-16T05:25:14;1.92;;;1.80;;
72864;SDS011;61000;48.120;11.548;2022-10-16T05:27:41;4.45;;;1.80;;
72864;SDS011;61000;48.120;11.548;2022-10-16T05:30:08;4.63;;;2.05;;
72864;SDS011;61000;48.120;11.548;2022-10-16T05:32:35;4.80;;;2.03;;
72864;SDS011;61000;48.120;11.548;2022-10-16T05:35:02;3.20;;;1.80;;
72864;SDS011;61000;48.120;11.548;2022-10-16T05:37:29;2.80;;;2.30;;
72864;SDS011;61000;48.120;11.548;2022-10-16T05:39:57;3.58;;;2.10;;
72864;SDS011;61000;48.120;11.548;2022-10-16T05:42:24;3.72;;;2.20;;
72864;SDS011;61000;48.120;11.548;2022-10-16T05:44:51;3.20;;;2.28;;
72864;SDS011;61000;48.120;11.548;2022-10-16T05:47:18;3.63;;;2.00;;
72864;SDS011;61000;48.120;11.548;2022-10-16T05:49:46;4.53;;;2.50;;
72864;SDS011;61000;48.120;11.548;2022-10-16T05:52:12;4.95;;;1.90;;
72864;SDS011;61000;48.120;11.548;2022-10-16T05:54:39;2.63;;;2.20;;
72864;SDS011;61000;48.120;11.548;2022-10-16T05:57:07;3.90;;;2.08;;
72864;SDS011;61000;48.120;11.548;2022-10-16T05:59:34;2.67;;;2.10;;
72864;SDS011;61000;48.120;11.548;2022-10-16T06:02:01;4.10;;;2.10;;
72864;SDS011;61000;48.120;11.548;2022-10-16T06:04:28;4.00;;;2.20;;
72864;SDS011;61000;48.120;11.548;2022-10-16T06:06:57;3.72;;;2.08;;
72864;SDS011;61000;48.120;11.548;2022-10-16T06:09:26;8.13;;;2.60;;
72864;SDS011;61000;48.120;11.548;2022-10-16T06:11:52;3.20;;;2.70;;
72864;SDS011;61000;48.120;11.548;2022-10-16T06:14:20;2.67;;;2.20;;
72864;SDS011;61000;48.120;11.548;2022-10-16T06:16:47;8.98;;;2.97;;
72864;SDS011;61000;48.120;11.548;2022-10-16T06:19:14;2.60;;;2.05;;
72864;SDS011;61000;48.120;11.548;2022-10-16T06:21:42;2.50;;;2.15;;
72864;SDS011;61000;48.120;11.548;2022-10-16T06:24:09;3.22;;;2.08;;
72864;SDS011;61000;48.120;11.548;2022-10-16T06:26:36;2.55;;;2.30;;
72864;SDS011;61000;48.120;11.548;2022-10-16T06:29:04;2.75;;;2.25;;
72864;SDS011;61000;48.120;11.548;2022-10-16T06:31:32;5.70;;;2.90;;
72864;SDS011;61000;48.120;11.548;2022-10-16T06:33:59;5.65;;;2.30;;
72864;SDS011;61000;48.120;11.548;2022-10-16T06:36:27;2.50;;;1.95;;
72864;SDS011;61000;48.120;11.548;2022-10-16T06:38:55;9.02;;;2.53;;
72864;SDS011;61000;48.120;11.548;2022-10-16T06:41:22;3.47;;;2.60;;
72864;SDS011;61000;48.120;11.548;2022-10-16T06:43:49;5.55;;;2.53;;
72864;SDS011;61000;48.120;11.548;2022-10-16T06:46:18;6.95;;;2.83;;
72864;SDS011;61000;48.120;11.548;2022-10-16T06:48:48;3.15;;;2.45;;
72864;SDS011;61000;48.120;11.548;2022-10-16T06:51:16;3.13;;;2.40;;
72864;SDS011;61000;48.120;11.548;2022-10-16T06:53:44;2.97;;;2.30;;
72864;SDS011;61000;48.120;11.548;2022-10-16T06:56:13;6.68;;;2.70;;
72864;SDS011;61000;48.120;11.548;2022-10-16T06:58:41;3.78;;;3.03;;
72864;SDS011;61000;48.120;11.548;2022-10-16T07:01:09;3.13;;;2.40;;
72864;SDS011;61000;48.120;11.548;2022-10-16T07:03:37;3.83;;;2.70;;
72864;SDS011;61000;48.120;11.548;2022-10-16T07:06:06;4.43;;;3.00;;
72864;SDS011;61000;48.120;11.548;2022-10-16T07:08:35;3.35;;;2.70;;
72864;SDS011;61000;48.120;11.548;2022-10-16T07:11:03;4.25;;;2.92;;
72864;SDS011;61000;48.120;11.548;2022-10-16T07:13:32;4.88;;;2.72;;
72864;SDS011;61000;48.120;11.548;2022-10-16T07:16:03;3.15;;;2.50;;
72864;SDS011;61000;48.120;11.548;2022-10-16T07:18:30;4.00;;;2.63;;
72864;SDS011;61000;48.120;11.548;2022-10-16T07:21:02;6.13;;;2.85;;
72864;SDS011;61000;48.120;11.548;2022-10-16T07:23:31;4.03;;;3.05;;
72864;SDS011;61000;48.120;11.548;2022-10-16T07:25:58;4.10;;;2.67;;
72864;SDS011;61000;48.120;11.548;2022-10-16T07:28:25;6.55;;;2.97;;
72864;SDS011;61000;48.120;11.548;2022-10-16T07:30:52;3.53;;;2.53;;
72864;SDS011;61000;48.120;11.548;2022-10-16T07:33:19;3.35;;;2.72;;
72864;SDS011;61000;48.120;11.548;2022-10-16T07:35:47;4.20;;;2.53;;
72864;SDS011;61000;48.120;11.548;2022-10-16T07:38:14;5.32;;;2.50;;
72864;SDS011;61000;48.120;11.548;2022-10-16T07:40:43;4.78;;;2.85;;
72864;SDS011;61000;48.120;11.548;2022-10-16T07:43:10;2.88;;;2.40;;
72864;SDS011;61000;48.120;11.548;2022-10-16T07:45:37;2.25;;;2.10;;
72864;SDS011;61000;48.120;11.548;2022-10-16T07:48:12;3.30;;;2.53;;
72864;SDS011;61000;48.120;11.548;2022-10-16T07:50:39;2.88;;;2.58;;
72864;SDS011;61000;48.120;11.548;2022-10-16T07:53:06;2.80;;;2.20;;
72864;SDS011;61000;48.120;11.548;2022-10-16T07:55:33;4.45;;;2.70;;
72864;SDS011;61000;48.120;11.548;2022-10-16T07:58:02;2.80;;;2.38;;
72864;SDS011;61000;48.120;11.548;2022-10-16T08:00:29;4.00;;;2.08;;
72864;SDS011;61000;48.120;11.548;2022-10-16T08:02:56;5.50;;;2.45;;
72864;SDS011;61000;48.120;11.548;2022-10-16T08:05:25;1.90;;;1.80;;
72864;SDS011;61000;48.120;11.548;2022-10-16T08:07:52;2.78;;;2.50;;
72864;SDS011;61000;48.120;11.548;2022-10-16T08:10:19;4.70;;;2.08;;
72864;SDS011;61000;48.120;11.548;2022-10-16T08:12:48;2.17;;;2.00;;
72864;SDS011;61000;48.120;11.548;2022-10-16T08:15:16;2.53;;;1.88;;
72864;SDS011;61000;48.120;11.548;2022-10-16T08:17:43;6.30;;;2.53;;
72864;SDS011;61000;48.120;11.548;2022-10-16T08:20:22;2.47;;;1.70;;
72864;SDS011;61000;48.120;11.548;2022-10-16T08:22:49;1.98;;;1.77;;
72864;SDS011;61000;48.120;11.548;2022-10-16T08:25:16;2.58;;;1.73;;
72864;SDS011;61000;48.120;11.548;2022-10-16T08:27:43;1.83;;;1.73;;
72864;SDS011;61000;48.120;11.548;2022-10-16T08:30:10;3.35;;;2.08;;
72864;SDS011;61000;48.120;11.548;2022-10-16T08:32:38;3.60;;;2.15;;
72864;SDS011;61000;48.120;11.548;2022-10-16T08:35:06;3.13;;;2.13;;
72864;SDS011;61000;48.120;11.548;2022-10-16T08:37:34;3.03;;;1.85;;
72864;SDS011;61000;48.120;11.548;2022-10-16T08:40:01;1.70;;;1.60;;
72864;SDS011;61000;48.120;11.548;2022-10-16T08:42:31;3.20;;;1.90;;
72864;SDS011;61000;48.120;11.548;2022-10-16T08:45:13;2.60;;;1.90;;
72864;SDS011;61000;48.120;11.548;2022-10-16T08:47:53;2.22;;;1.85;;
72864;SDS011;61000;48.120;11.548;2022-10-16T08:50:32;2.15;;;1.88;;
72864;SDS011;61000;48.120;11.548;2022-10-16T08:53:02;1.77;;;1.50;;
72864;SDS011;61000;48.120;11.548;2022-10-16T08:55:32;2.03;;;1.83;;
72864;SDS011;61000;48.120;11.548;2022-10-16T08:58:05;1.75;;;1.63;;
72864;SDS011;61000;48.120;11.548;2022-10-16T09:00:38;2.15;;;1.95;;
72864;SDS011;61000;48.120;11.548;2022-10-16T09:03:10;2.80;;;1.67;;
72864;SDS011;61000;48.120;11.548;2022-10-16T09:05:52;1.67;;;1.58;;
72864;SDS011;61000;48.120;11.548;2022-10-16T09:08:29;3.50;;;2.88;;
72864;SDS011;61000;48.120;11.548;2022-10-16T09:11:04;1.45;;;1.17;;
72864;SDS011;61000;48.120;11.548;2022-10-16T09:13:35;2.40;;;1.50;;
72864;SDS011;61000;48.120;11.548;2022-10-16T09:16:15;2.13;;;1.10;;
72864;SDS011;61000;48.120;11.548;2022-10-16T09:18:51;1.42;;;1.10;;
72864;SDS011;61000;48.120;11.548;2022-10-16T09:21:21;1.30;;;1.20;;
72864;SDS011;61000;48.120;11.548;2022-10-16T09:23:51;3.20;;;1.92;;
72864;SDS011;61000;48.120;11.548;2022-10-16T09:26:20;2.05;;;1.40;;
72864;SDS011;61000;48.120;11.548;2022-10-16T09:28:47;2.22;;;1.30;;
72864;SDS011;61000;48.120;11.548;2022-10-16T09:31:17;1.73;;;1.00;;
72864;SDS011;61000;48.120;11.548;2022-10-16T09:33:48;1.58;;;1.30;;
72864;SDS011;61000;48.120;11.548;2022-10-16T09:36:19;1.67;;;1.40;;
72864;SDS011;61000;48.120;11.548;2022-10-16T09:38:48;3.25;;;1.40;;
72864;SDS011;61000;48.120;11.548;2022-10-16T09:41:16;1.33;;;1.15;;
72864;SDS011;61000;48.120;11.548;2022-10-16T09:43:49;2.97;;;1.52;;
72864;SDS011;61000;48.120;11.548;2022-10-16T09:46:27;2.25;;;1.23;;
72864;SDS011;61000;48.120;11.548;2022-10-16T09:48:57;1.70;;;1.60;;
72864;SDS011;61000;48.120;11.548;2022-10-16T09:51:26;1.45;;;1.35;;
72864;SDS011;61000;48.120;11.548;2022-10-16T09:53:55;1.58;;;1.48;;
72864;SDS011;61000;48.120;11.548;2022-10-16T09:56:25;7.45;;;2.90;;
72864;SDS011;61000;48.120;11.548;2022-10-16T09:58:53;4.03;;;2.40;;
72864;SDS011;61000;48.120;11.548;2022-10-16T10:01:22;3.78;;;2.60;;
72864;SDS011;61000;48.120;11.548;2022-10-16T10:03:57;3.67;;;2.60;;
72864;SDS011;61000;48.120;11.548;2022-10-16T10:06:28;2.10;;;1.58;;
72864;SDS011;61000;48.120;11.548;2022-10-16T10:08:59;4.80;;;1.48;;
72864;SDS011;61000;48.120;11.548;2022-10-16T10:11:37;4.97;;;2.08;;
72864;SDS011;61000;48.120;11.548;2022-10-16T10:14:12;2.30;;;1.70;;
72864;SDS011;61000;48.120;11.548;2022-10-16T10:16:44;2.92;;;1.55;;
72864;SDS011;61000;48.120;11.548;2022-10-16T10:19:14;3.47;;;1.85;;
72864;SDS011;61000;48.120;11.548;2022-10-16T10:21:42;1.58;;;1.38;;
72864;SDS011;61000;48.120;11.548;2022-10-16T10:24:10;1.73;;;1.63;;
72864;SDS011;61000;48.120;11.548;2022-10-16T10:26:38;1.70;;;1.60;;
72864;SDS011;61000;48.120;11.548;2022-10-16T10:29:07;1.60;;;1.50;;
72864;SDS011;61000;48.120;11.548;2022-10-16T10:31:44;5.35;;;1.80;;
72864;SDS011;61000;48.120;11.548;2022-10-16T10:34:22;2.30;;;1.80;;
72864;SDS011;61000;48.120;11.548;2022-10-16T10:37:03;2.42;;;1.40;;
72864;SDS011;61000;48.120;11.548;2022-10-16T10:39:38;1.77;;;1.60;;
72864;SDS011;61000;48.120;11.548;2022-10-16T10:42:16;3.63;;;1.55;;
72864;SDS011;61000;48.120;11.548;2022-10-16T10:44:57;2.25;;;1.60;;
72864;SDS011;61000;48.120;11.548;2022-10-16T10:47:47;2.15;;;1.73;;
72864;SDS011;61000;48.120;11.548;2022-10-16T10:50:32;3.33;;;1.92;;
72864;SDS011;61000;48.120;11.548;2022-10-16T10:53:06;4.97;;;1.70;;
72864;SDS011;61000;48.120;11.548;2022-10-16T10:55:45;1.77;;;1.63;;
72864;SDS011;61000;48.120;11.548;2022-10-16T10:58:24;1.88;;;1.75;;
72864;SDS011;61000;48.120;11.548;2022-10-16T11:01:10;4.30;;;1.92;;
72864;SDS011;61000;48.120;11.548;2022-10-16T11:03:45;2.55;;;1.83;;
72864;SDS011;61000;48.120;11.548;2022-10-16T11:06:32;1.83;;;1.70;;
72864;SDS011;61000;48.120;11.548;2022-10-16T11:09:03;3.20;;;1.75;;
72864;SDS011;61000;48.120;11.548;2022-10-16T11:11:38;2.25;;;1.83;;
72864;SDS011;61000;48.120;11.548;2022-10-16T11:14:11;2.72;;;1.30;;
72864;SDS011;61000;48.120;11.548;2022-10-16T11:16:44;1.35;;;1.25;;
72864;SDS011;61000;48.120;11.548;2022-10-16T11:19:19;1.85;;;1.30;;
72864;SDS011;61000;48.120;11.548;2022-10-16T11:21:56;1.10;;;1.00;;
72864;SDS011;61000;48.120;11.548;2022-10-16T11:24:34;1.10;;;0.98;;
72864;SDS011;61000;48.120;11.548;2022-10-16T11:27:08;1.20;;;1.10;;
72864;SDS011;61000;48.120;11.548;2022-10-16T11:29:43;1.38;;;1.00;;
72864;SDS011;61000;48.120;11.548;2022-10-16T11:32:16;2.10;;;1.15;;
72864;SDS011;61000;48.120;11.548;2022-10-16T11:34:49;2.25;;;1.10;;
72864;SDS011;61000;48.120;11.548;2022-10-16T11:37:21;0.80;;;0.80;;
72864;SDS011;61000;48.120;11.548;2022-10-16T11:39:52;2.60;;;1.00;;
72864;SDS011;61000;48.120;11.548;2022-10-16T11:42:25;1.20;;;1.10;;
72864;SDS011;61000;48.120;11.548;2022-10-16T11:45:00;1.60;;;1.25;;
72864;SDS011;61000;48.120;11.548;2022-10-16T11:47:35;0.75;;;0.75;;
72864;SDS011;61000;48.120;11.548;2022-10-16T11:50:22;1.42;;;0.90;;
72864;SDS011;61000;48.120;11.548;2022-10-16T11:52:53;0.88;;;0.88;;
72864;SDS011;61000;48.120;11.548;2022-10-16T11:55:27;1.52;;;0.85;;
72864;SDS011;61000;48.120;11.548;2022-10-16T11:57:59;0.70;;;0.70;;
72864;SDS011;61000;48.120;11.548;2022-10-16T12:00:33;2.67;;;0.70;;
72864;SDS011;61000;48.120;11.548;2022-10-16T12:03:10;1.98;;;0.70;;
72864;SDS011;61000;48.120;11.548;2022-10-16T12:05:50;0.80;;;0.80;;
72864;SDS011;61000;48.120;11.548;2022-10-16T12:08:24;1.00;;;0.90;;
72864;SDS011;61000;48.120;11.548;2022-10-16T12:10:52;1.08;;;0.98;;
72864;SDS011;61000;48.120;11.548;2022-10-16T12:13:30;2.10;;;0.80;;
72864;SDS011;61000;48.120;11.548;2022-10-16T12:16:19;0.70;;;0.70;;
72864;SDS011;61000;48.120;11.548;2022-10-16T12:18:48;1.75;;;0.95;;
72864;SDS011;61000;48.120;11.548;2022-10-16T12:21:15;1.52;;;0.90;;
72864;SDS011;61000;48.120;11.548;2022-10-16T12:23:49;3.10;;;1.10;;
72864;SDS011;61000;48.120;11.548;2022-10-16T12:26:23;0.90;;;0.90;;
72864;SDS011;61000;48.120;11.548;2022-10-16T12:28:51;1.00;;;0.90;;
72864;SDS011;61000;48.120;11.548;2022-10-16T12:31:19;0.70;;;0.70;;
72864;SDS011;61000;48.120;11.548;2022-10-16T12:33:53;0.95;;;0.80;;
72864;SDS011;61000;48.120;11.548;2022-10-16T12:36:27;1.13;;;0.75;;
72864;SDS011;61000;48.120;11.548;2022-10-16T12:38:57;2.00;;;0.95;;
72864;SDS011;61000;48.120;11.548;2022-10-16T12:41:25;1.67;;;0.85;;
72864;SDS011;61000;48.120;11.548;2022-10-16T12:43:54;0.85;;;0.85;;
72864;SDS011;61000;48.120;11.548;2022-10-16T12:46:23;0.80;;;0.80;;
72864;SDS011;61000;48.120;11.548;2022-10-16T12:51:56;0.80;;;0.80;;
72864;SDS011;61000;48.120;11.548;2022-10-16T12:54:27;2.47;;;0.90;;
72864;SDS011;61000;48.120;11.548;2022-10-16T12:57:02;0.98;;;0.90;;
72864;SDS011;61000;48.120;11.548;2022-10-16T12:59:40;2.20;;;1.00;;
72864;SDS011;61000;48.120;11.548;2022-10-16T13:02:20;3.20;;;1.20;;
72864;SDS011;61000;48.120;11.548;2022-10-16T13:05:14;0.82;;;0.82;;
72864;SDS011;61000;48.120;11.548;2022-10-16T13:08:04;1.30;;;1.20;;
72864;SDS011;61000;48.120;11.548;2022-10-16T13:10:47;2.65;;;1.10;;
72864;SDS011;61000;48.120;11.548;2022-10-16T13:13:31;2.50;;;1.00;;
72864;SDS011;61000;48.120;11.548;2022-10-16T13:16:10;4.22;;;3.15;;
72864;SDS011;61000;48.120;11.548;2022-10-16T13:18:46;2.13;;;1.73;;
72864;SDS011;61000;48.120;11.548;2022-10-16T13:21:28;1.00;;;1.00;;
72864;SDS011;61000;48.120;11.548;2022-10-16T13:24:08;2.35;;;1.13;;
72864;SDS011;61000;48.120;11.548;2022-10-16T13:26:44;2.40;;;1.17;;
72864;SDS011;61000;48.120;11.548;2022-10-16T13:29:19;1.13;;;1.02;;
72864;SDS011;61000;48.120;11.548;2022-10-16T13:31:46;1.30;;;1.00;;
72864;SDS011;61000;48.120;11.548;2022-10-16T13:34:14;2.72;;;1.17;;
72864;SDS011;61000;48.120;11.548;2022-10-16T13:36:45;2.28;;;0.85;;
72864;SDS011;61000;48.120;11.548;2022-10-16T13:39:16;1.17;;;0.77;;
72864;SDS011;61000;48.120;11.548;2022-10-16T13:42:00;1.00;;;1.00;;
72864;SDS011;61000;48.120;11.548;2022-10-16T13:44:30;1.02;;;0.93;;
72864;SDS011;61000;48.120;11.548;2022-10-16T13:47:01;1.45;;;1.35;;
72864;SDS011;61000;48.120;11.548;2022-10-16T13:49:29;1.27;;;1.08;;
72864;SDS011;61000;48.120;11.548;2022-10-16T13:51:56;4.20;;;1.10;;
72864;SDS011;61000;48.120;11.548;2022-10-16T13:54:24;2.15;;;0.95;;
72864;SDS011;61000;48.120;11.548;2022-10-16T13:56:52;0.80;;;0.80;;
72864;SDS011;61000;48.120;11.548;2022-10-16T13:59:24;1.45;;;1.30;;
72864;SDS011;61000;48.120;11.548;2022-10-16T14:01:53;1.67;;;0.90;;
72864;SDS011;61000;48.120;11.548;2022-10-16T14:04:22;1.25;;;1.02;;
72864;SDS011;61000;48.120;11.548;2022-10-16T14:06:51;0.90;;;0.80;;
72864;SDS011;61000;48.120;11.548;2022-10-16T14:09:21;0.70;;;0.70;;
72864;SDS011;61000;48.120;11.548;2022-10-16T14:11:51;1.10;;;0.90;;
72864;SDS011;61000;48.120;11.548;2022-10-16T14:14:21;4.55;;;1.33;;
72864;SDS011;61000;48.120;11.548;2022-10-16T14:16:50;2.17;;;1.48;;
72864;SDS011;61000;48.120;11.548;2022-10-16T14:19:19;2.20;;;1.05;;
72864;SDS011;61000;48.120;11.548;2022-10-16T14:21:49;1.05;;;0.95;;
72864;SDS011;61000;48.120;11.548;2022-10-16T14:24:25;0.90;;;0.90;;
72864;SDS011;61000;48.120;11.548;2022-10-16T14:26:53;5.07;;;3.25;;
72864;SDS011;61000;48.120;11.548;2022-10-16T14:29:21;2.58;;;1.80;;
72864;SDS011;61000;48.120;11.548;2022-10-16T14:31:54;2.42;;;1.10;;
72864;SDS011;61000;48.120;11.548;2022-10-16T14:34:26;0.90;;;0.90;;
72864;SDS011;61000;48.120;11.548;2022-10-16T14:36:55;1.00;;;0.90;;
72864;SDS011;61000;48.120;11.548;2022-10-16T14:39:22;2.13;;;1.60;;
72864;SDS011;61000;48.120;11.548;2022-10-16T14:41:52;1.98;;;1.25;;
72864;SDS011;61000;48.120;11.548;2022-10-16T14:44:22;1.00;;;1.00;;
72864;SDS011;61000;48.120;11.548;2022-10-16T14:46:55;2.67;;;1.80;;
72864;SDS011;61000;48.120;11.548;2022-10-16T14:49:24;2.10;;;1.90;;
72864;SDS011;61000;48.120;11.548;2022-10-16T14:51:53;2.75;;;1.80;;
72864;SDS011;61000;48.120;11.548;2022-10-16T14:54:20;3.47;;;1.90;;